sensor_id;sensor_type;location;lat;lon;timestamp;pressure;altitude;pressure_sealevel;temperature;humidity
16451;BME280;12243;42.708;23.310;2024-01-07T00:02:22;93555.34;;;6.13;100.00
16451;BME280;12243;42.708;23.310;2024-01-07T00:04:48;93554.69;;;6.11;100.00
16451;BME280;12243;42.708;23.310;2024-01-07T00:07:15;93539.59;;;6.07;100.00
16451;BME280;12243;42.708;23.310;2024-01-07T00:09:42;93546.78;;;6.03;100.00
16451;BME280;12243;42.708;23.310;2024-01-07T00:12:10;93546.41;;;5.98;100.00
16451;BME280;12243;42.708;23.310;2024-01-07T00:14:37;93526.09;;;6.23;100.00
16451;BME280;12243;42.708;23.310;2024-01-07T00:17:04;93531.00;;;6.06;100.00
16451;BME280;12243;42.708;23.310;2024-01-07T00:19:32;93539.16;;;5.92;100.00
16451;BME280;12243;42.708;23.310;2024-01-07T00:22:00;93531.53;;;5.81;100.00
16451;BME280;12243;42.708;23.310;2024-01-07T00:24:28;93525.31;;;5.83;100.00
16451;BME280;12243;42.708;23.310;2024-01-07T00:26:55;93520.97;;;5.93;100.00
16451;BME280;12243;42.708;23.310;2024-01-07T00:29:22;93519.16;;;5.84;100.00
16451;BME280;12243;42.708;23.310;2024-01-07T00:31:49;93519.44;;;5.81;100.00
16451;BME280;12243;42.708;23.310;2024-01-07T00:34:15;93508.28;;;5.81;100.00
16451;BME280;12243;42.708;23.310;2024-01-07T00:36:44;93497.97;;;5.81;100.00
16451;BME280;12243;42.708;23.310;2024-01-07T00:39:11;93486.56;;;5.73;100.00
16451;BME280;12243;42.708;23.310;2024-01-07T00:41:38;93477.84;;;5.74;100.00
16451;BME280;12243;42.708;23.310;2024-01-07T00:44:05;93476.88;;;5.85;100.00
16451;BME280;12243;42.708;23.310;2024-01-07T00:46:31;93478.00;;;5.92;100.00
16451;BME280;12243;42.708;23.310;2024-01-07T00:48:58;93477.72;;;5.86;100.00
16451;BME280;12243;42.708;23.310;2024-01-07T00:51:25;93457.59;;;5.89;100.00
16451;BME280;12243;42.708;23.310;2024-01-07T00:53:53;93459.63;;;5.86;100.00
16451;BME280;12243;42.708;23.310;2024-01-07T00:56:20;93449.97;;;5.88;100.00
16451;BME280;12243;42.708;23.310;2024-01-07T00:58:47;93447.38;;;5.88;100.00
16451;BME280;12243;42.708;23.310;2024-01-07T01:01:14;93448.47;;;5.95;100.00
16451;BME280;12243;42.708;23.310;2024-01-07T01:03:40;93442.34;;;5.96;100.00
16451;BME280;12243;42.708;23.310;2024-01-07T01:06:14;93448.34;;;5.96;100.00
16451;BME280;12243;42.708;23.310;2024-01-07T01:08:41;93442.50;;;6.04;100.00
16451;BME280;12243;42.708;23.310;2024-01-07T01:11:10;93443.41;;;6.13;100.00
16451;BME280;12243;42.708;23.310;2024-01-07T01:13:37;93430.91;;;6.08;100.00
16451;BME280;12243;42.708;23.310;2024-01-07T01:16:04;93423.16;;;6.08;100.00
16451;BME280;12243;42.708;23.310;2024-01-07T01:18:31;93419.22;;;6.14;100.00
16451;BME280;12243;42.708;23.310;2024-01-07T01:20:58;93410.63;;;6.13;100.00
16451;BME280;12243;42.708;23.310;2024-01-07T01:23:24;93407.59;;;6.28;100.00
16451;BME280;12243;42.708;23.310;2024-01-07T01:25:51;93391.69;;;6.23;100.00
16451;BME280;12243;42.708;23.310;2024-01-07T01:28:19;93400.13;;;6.25;100.00
16451;BME280;12243;42.708;23.310;2024-01-07T01:30:46;93379.53;;;6.33;100.00
16451;BME280;12243;42.708;23.310;2024-01-07T01:33:13;93364.34;;;6.48;100.00
16451;BME280;12243;42.708;23.310;2024-01-07T01:35:40;93367.56;;;6.32;100.00
16451;BME280;12243;42.708;23.310;2024-01-07T01:38:06;93355.06;;;6.27;100.00
16451;BME280;12243;42.708;23.310;2024-01-07T01:40:33;93361.72;;;6.30;100.00
16451;BME280;12243;42.708;23.310;2024-01-07T01:43:00;93357.06;;;6.33;100.00
16451;BME280;12243;42.708;23.310;2024-01-07T01:45:28;93337.88;;;6.36;100.00
16451;BME280;12243;42.708;23.310;2024-01-07T01:47:55;93331.09;;;6.35;100.00
16451;BME280;12243;42.708;23.310;2024-01-07T01:50:22;93333.69;;;6.35;100.00
16451;BME280;12243;42.708;23.310;2024-01-07T01:52:49;93322.22;;;6.37;100.00
16451;BME280;12243;42.708;23.310;2024-01-07T01:55:18;93311.59;;;6.40;100.00
16451;BME280;12243;42.708;23.310;2024-01-07T01:57:46;93302.28;;;6.48;100.00
16451;BME280;12243;42.708;23.310;2024-01-07T02:00:15;93310.50;;;6.43;100.00
16451;BME280;12243;42.708;23.310;2024-01-07T02:02:43;93312.69;;;6.38;100.00
16451;BME280;12243;42.708;23.310;2024-01-07T02:05:10;93306.19;;;6.34;100.00
16451;BME280;12243;42.708;23.310;2024-01-07T02:07:39;93311.78;;;6.29;100.00
16451;BME280;12243;42.708;23.310;2024-01-07T02:10:06;93310.78;;;6.40;100.00
16451;BME280;12243;42.708;23.310;2024-01-07T02:12:33;93313.88;;;6.43;100.00
16451;BME280;12243;42.708;23.310;2024-01-07T02:15:00;93326.06;;;6.33;100.00
16451;BME280;12243;42.708;23.310;2024-01-07T02:17:27;93316.97;;;6.29;100.00
16451;BME280;12243;42.708;23.310;2024-01-07T02:19:55;93299.09;;;6.36;100.00
16451;BME280;12243;42.708;23.310;2024-01-07T02:22:22;93296.47;;;6.46;100.00
16451;BME280;12243;42.708;23.310;2024-01-07T02:24:50;93272.81;;;6.58;100.00
16451;BME280;12243;42.708;23.310;2024-01-07T02:27:17;93262.63;;;6.39;100.00
16451;BME280;12243;42.708;23.310;2024-01-07T02:29:44;93242.28;;;6.44;100.00
16451;BME280;12243;42.708;23.310;2024-01-07T02:32:11;93218.22;;;6.43;100.00
16451;BME280;12243;42.708;23.310;2024-01-07T02:34:38;93227.16;;;6.31;100.00
16451;BME280;12243;42.708;23.310;2024-01-07T02:37:05;93227.28;;;6.30;100.00
16451;BME280;12243;42.708;23.310;2024-01-07T02:39:32;93212.06;;;6.27;100.00
16451;BME280;12243;42.708;23.310;2024-01-07T02:42:00;93213.41;;;6.31;100.00
16451;BME280;12243;42.708;23.310;2024-01-07T02:44:26;93221.03;;;6.32;100.00
16451;BME280;12243;42.708;23.310;2024-01-07T02:46:54;93225.22;;;6.33;100.00
16451;BME280;12243;42.708;23.310;2024-01-07T02:49:21;93222.06;;;6.39;100.00
16451;BME280;12243;42.708;23.310;2024-01-07T02:51:48;93232.53;;;6.38;100.00
16451;BME280;12243;42.708;23.310;2024-01-07T02:54:15;93235.72;;;6.50;100.00
16451;BME280;12243;42.708;23.310;2024-01-07T02:56:42;93242.16;;;6.46;100.00
16451;BME280;12243;42.708;23.310;2024-01-07T02:59:10;93228.78;;;6.50;100.00
16451;BME280;12243;42.708;23.310;2024-01-07T03:01:37;93226.56;;;6.55;100.00
16451;BME280;12243;42.708;23.310;2024-01-07T03:04:13;93247.41;;;6.72;100.00
16451;BME280;12243;42.708;23.310;2024-01-07T03:06:40;93247.09;;;6.75;100.00
16451;BME280;12243;42.708;23.310;2024-01-07T03:09:07;93246.06;;;6.67;100.00
16451;BME280;12243;42.708;23.310;2024-01-07T03:11:39;93244.53;;;6.75;100.00
16451;BME280;12243;42.708;23.310;2024-01-07T03:14:05;93251.09;;;6.87;100.00
16451;BME280;12243;42.708;23.310;2024-01-07T03:16:34;93261.75;;;6.84;100.00
16451;BME280;12243;42.708;23.310;2024-01-07T03:19:00;93265.50;;;6.89;100.00
16451;BME280;12243;42.708;23.310;2024-01-07T03:21:28;93268.75;;;6.91;100.00
16451;BME280;12243;42.708;23.310;2024-01-07T03:23:55;93283.50;;;6.73;100.00
16451;BME280;12243;42.708;23.310;2024-01-07T03:26:21;93287.81;;;6.73;100.00
16451;BME280;12243;42.708;23.310;2024-01-07T03:28:48;93287.97;;;6.89;100.00
16451;BME280;12243;42.708;23.310;2024-01-07T03:31:16;93279.91;;;6.92;100.00
16451;BME280;12243;42.708;23.310;2024-01-07T03:33:46;93267.66;;;6.94;100.00
16451;BME280;12243;42.708;23.310;2024-01-07T03:36:13;93262.31;;;6.96;100.00
16451;BME280;12243;42.708;23.310;2024-01-07T03:38:41;93259.50;;;6.89;100.00
16451;BME280;12243;42.708;23.310;2024-01-07T03:41:08;93275.56;;;6.92;100.00
16451;BME280;12243;42.708;23.310;2024-01-07T03:43:35;93270.88;;;6.96;100.00
16451;BME280;12243;42.708;23.310;2024-01-07T03:46:02;93259.94;;;7.02;100.00
16451;BME280;12243;42.708;23.310;2024-01-07T03:48:29;93268.28;;;7.14;100.00
16451;BME280;12243;42.708;23.310;2024-01-07T03:50:57;93257.13;;;7.13;100.00
16451;BME280;12243;42.708;23.310;2024-01-07T03:53:24;93247.94;;;7.45;100.00
16451;BME280;12243;42.708;23.310;2024-01-07T03:55:51;93243.81;;;7.60;100.00
16451;BME280;12243;42.708;23.310;2024-01-07T03:58:17;93244.19;;;7.74;100.00
16451;BME280;12243;42.708;23.310;2024-01-07T04:00:44;93244.59;;;7.87;100.00
16451;BME280;12243;42.708;23.310;2024-01-07T04:03:11;93240.09;;;7.97;100.00
16451;BME280;12243;42.708;23.310;2024-01-07T04:05:38;93238.16;;;7.99;100.00
16451;BME280;12243;42.708;23.310;2024-01-07T04:08:09;93233.66;;;8.09;100.00
16451;BME280;12243;42.708;23.310;2024-01-07T04:10:36;93235.28;;;8.10;100.00
16451;BME280;12243;42.708;23.310;2024-01-07T04:13:03;93226.88;;;8.17;100.00
16451;BME280;12243;42.708;23.310;2024-01-07T04:15:30;93226.88;;;8.17;100.00
16451;BME280;12243;42.708;23.310;2024-01-07T04:17:57;93229.47;;;8.25;100.00
16451;BME280;12243;42.708;23.310;2024-01-07T04:20:27;93218.78;;;8.20;100.00
16451;BME280;12243;42.708;23.310;2024-01-07T04:22:53;93210.03;;;8.21;100.00
16451;BME280;12243;42.708;23.310;2024-01-07T04:25:22;93206.78;;;8.19;100.00
16451;BME280;12243;42.708;23.310;2024-01-07T04:27:48;93208.72;;;8.17;100.00
16451;BME280;12243;42.708;23.310;2024-01-07T04:30:15;93205.97;;;8.10;100.00
16451;BME280;12243;42.708;23.310;2024-01-07T04:32:42;93204.16;;;8.10;100.00
16451;BME280;12243;42.708;23.310;2024-01-07T04:35:09;93201.56;;;8.02;100.00
16451;BME280;12243;42.708;23.310;2024-01-07T04:37:37;93198.97;;;8.02;100.00
16451;BME280;12243;42.708;23.310;2024-01-07T04:40:05;93186.03;;;8.10;100.00
16451;BME280;12243;42.708;23.310;2024-01-07T04:42:34;93183.25;;;8.04;100.00
16451;BME280;12243;42.708;23.310;2024-01-07T04:45:01;93177.75;;;8.07;100.00
16451;BME280;12243;42.708;23.310;2024-01-07T04:47:27;93187.00;;;8.09;100.00
16451;BME280;12243;42.708;23.310;2024-01-07T04:49:54;93188.88;;;7.91;100.00
16451;BME280;12243;42.708;23.310;2024-01-07T04:52:21;93187.03;;;7.75;100.00
16451;BME280;12243;42.708;23.310;2024-01-07T04:54:49;93190.44;;;7.76;100.00
16451;BME280;12243;42.708;23.310;2024-01-07T04:57:16;93196.56;;;7.67;100.00
16451;BME280;12243;42.708;23.310;2024-01-07T04:59:44;93204.13;;;7.60;100.00
16451;BME280;12243;42.708;23.310;2024-01-07T05:02:10;93212.75;;;7.69;100.00
16451;BME280;12243;42.708;23.310;2024-01-07T05:04:37;93215.66;;;7.66;100.00
16451;BME280;12243;42.708;23.310;2024-01-07T05:07:04;93213.03;;;7.57;100.00
16451;BME280;12243;42.708;23.310;2024-01-07T05:09:32;93213.34;;;7.54;100.00
16451;BME280;12243;42.708;23.310;2024-01-07T05:11:59;93197.22;;;7.69;100.00
16451;BME280;12243;42.708;23.310;2024-01-07T05:14:26;93184.47;;;7.75;100.00
16451;BME280;12243;42.708;23.310;2024-01-07T05:16:55;93182.00;;;7.74;100.00
16451;BME280;12243;42.708;23.310;2024-01-07T05:19:21;93175.03;;;7.66;100.00
16451;BME280;12243;42.708;23.310;2024-01-07T05:21:48;93174.19;;;7.57;100.00
16451;BME280;12243;42.708;23.310;2024-01-07T05:24:15;93184.63;;;7.39;100.00
16451;BME280;12243;42.708;23.310;2024-01-07T05:26:43;93187.78;;;7.59;100.00
16451;BME280;12243;42.708;23.310;2024-01-07T05:29:10;93188.75;;;7.58;100.00
16451;BME280;12243;42.708;23.310;2024-01-07T05:31:38;93191.25;;;7.42;100.00
16451;BME280;12243;42.708;23.310;2024-01-07T05:34:06;93189.31;;;7.36;100.00
16451;BME280;12243;42.708;23.310;2024-01-07T05:36:33;93188.16;;;7.38;100.00
16451;BME280;12243;42.708;23.310;2024-01-07T05:39:00;93186.06;;;7.42;100.00
16451;BME280;12243;42.708;23.310;2024-01-07T05:41:26;93189.06;;;7.55;100.00
16451;BME280;12243;42.708;23.310;2024-01-07T05:43:53;93180.19;;;7.66;100.00
16451;BME280;12243;42.708;23.310;2024-01-07T05:46:20;93176.19;;;7.72;100.00
16451;BME280;12243;42.708;23.310;2024-01-07T05:48:48;93174.28;;;7.82;100.00
16451;BME280;12243;42.708;23.310;2024-01-07T05:51:17;93166.31;;;7.75;100.00
16451;BME280;12243;42.708;23.310;2024-01-07T05:53:44;93167.72;;;7.61;100.00
16451;BME280;12243;42.708;23.310;2024-01-07T05:56:11;93173.81;;;7.52;100.00
16451;BME280;12243;42.708;23.310;2024-01-07T05:58:38;93164.72;;;7.40;100.00
16451;BME280;12243;42.708;23.310;2024-01-07T06:01:06;93167.63;;;7.37;100.00
16451;BME280;12243;42.708;23.310;2024-01-07T06:03:34;93167.63;;;7.37;100.00
16451;BME280;12243;42.708;23.310;2024-01-07T06:06:01;93167.03;;;7.51;100.00
16451;BME280;12243;42.708;23.310;2024-01-07T06:08:29;93170.09;;;7.47;100.00
16451;BME280;12243;42.708;23.310;2024-01-07T06:10:56;93191.16;;;7.52;100.00
16451;BME280;12243;42.708;23.310;2024-01-07T06:13:23;93185.00;;;7.53;100.00
16451;BME280;12243;42.708;23.310;2024-01-07T06:15:50;93171.59;;;7.57;100.00
16451;BME280;12243;42.708;23.310;2024-01-07T06:18:17;93173.59;;;7.72;100.00
16451;BME280;12243;42.708;23.310;2024-01-07T06:20:44;93190.06;;;7.62;100.00
16451;BME280;12243;42.708;23.310;2024-01-07T06:23:10;93178.22;;;7.60;100.00
16451;BME280;12243;42.708;23.310;2024-01-07T06:25:39;93176.50;;;7.69;100.00
16451;BME280;12243;42.708;23.310;2024-01-07T06:28:06;93183.25;;;7.61;100.00
16451;BME280;12243;42.708;23.310;2024-01-07T06:30:32;93173.91;;;7.69;100.00
16451;BME280;12243;42.708;23.310;2024-01-07T06:33:00;93171.97;;;7.71;100.00
16451;BME280;12243;42.708;23.310;2024-01-07T06:35:27;93182.00;;;7.74;100.00
16451;BME280;12243;42.708;23.310;2024-01-07T06:37:54;93195.84;;;7.56;100.00
16451;BME280;12243;42.708;23.310;2024-01-07T06:40:20;93191.31;;;7.50;100.00
16451;BME280;12243;42.708;23.310;2024-01-07T06:42:49;93185.84;;;7.53;100.00
16451;BME280;12243;42.708;23.310;2024-01-07T06:45:17;93200.13;;;7.66;100.00
16451;BME280;12243;42.708;23.310;2024-01-07T06:47:43;93194.59;;;7.60;100.00
16451;BME280;12243;42.708;23.310;2024-01-07T06:50:11;93213.09;;;7.74;100.00
16451;BME280;12243;42.708;23.310;2024-01-07T06:52:38;93211.88;;;7.86;100.00
16451;BME280;12243;42.708;23.310;2024-01-07T06:55:07;93202.44;;;7.77;100.00
16451;BME280;12243;42.708;23.310;2024-01-07T06:57:33;93204.06;;;7.78;100.00
16451;BME280;12243;42.708;23.310;2024-01-07T07:00:02;93211.84;;;7.78;100.00
16451;BME280;12243;42.708;23.310;2024-01-07T07:02:30;93207.97;;;7.82;100.00
16451;BME280;12243;42.708;23.310;2024-01-07T07:04:57;93194.34;;;7.80;100.00
16451;BME280;12243;42.708;23.310;2024-01-07T07:07:23;93209.09;;;7.79;100.00
16451;BME280;12243;42.708;23.310;2024-01-07T07:09:50;93209.88;;;7.80;100.00
16451;BME280;12243;42.708;23.310;2024-01-07T07:12:18;93211.56;;;7.97;100.00
16451;BME280;12243;42.708;23.310;2024-01-07T07:14:45;93216.13;;;7.95;100.00
16451;BME280;12243;42.708;23.310;2024-01-07T07:17:14;93207.88;;;8.00;100.00
16451;BME280;12243;42.708;23.310;2024-01-07T07:19:42;93201.56;;;8.02;100.00
16451;BME280;12243;42.708;23.310;2024-01-07T07:22:08;93192.19;;;8.09;100.00
16451;BME280;12243;42.708;23.310;2024-01-07T07:24:39;93186.69;;;8.13;100.00
16451;BME280;12243;42.708;23.310;2024-01-07T07:27:06;93198.03;;;8.20;100.00
16451;BME280;12243;42.708;23.310;2024-01-07T07:29:33;93198.06;;;8.28;100.00
16451;BME280;12243;42.708;23.310;2024-01-07T07:32:00;93203.91;;;8.30;100.00
16451;BME280;12243;42.708;23.310;2024-01-07T07:34:28;93193.66;;;8.28;100.00
16451;BME280;12243;42.708;23.310;2024-01-07T07:36:55;93205.25;;;8.42;100.00
16451;BME280;12243;42.708;23.310;2024-01-07T07:39:22;93216.59;;;8.49;100.00
16451;BME280;12243;42.708;23.310;2024-01-07T07:41:49;93216.78;;;8.64;100.00
16451;BME280;12243;42.708;23.310;2024-01-07T07:44:15;93204.28;;;8.59;100.00
16451;BME280;12243;42.708;23.310;2024-01-07T07:46:43;93189.38;;;8.70;100.00
16451;BME280;12243;42.708;23.310;2024-01-07T07:49:10;93191.19;;;8.86;100.00
16451;BME280;12243;42.708;23.310;2024-01-07T07:51:38;93198.13;;;8.85;100.00
16451;BME280;12243;42.708;23.310;2024-01-07T07:54:05;93204.13;;;9.02;100.00
16451;BME280;12243;42.708;23.310;2024-01-07T07:56:32;93190.97;;;9.20;100.00
16451;BME280;12243;42.708;23.310;2024-01-07T07:58:58;93197.56;;;9.47;100.00
16451;BME280;12243;42.708;23.310;2024-01-07T08:01:25;93191.50;;;9.71;100.00
16451;BME280;12243;42.708;23.310;2024-01-07T08:03:52;93187.56;;;9.75;100.00
16451;BME280;12243;42.708;23.310;2024-01-07T08:06:19;93187.66;;;9.90;100.00
16451;BME280;12243;42.708;23.310;2024-01-07T08:08:47;93186.31;;;10.02;100.00
16451;BME280;12243;42.708;23.310;2024-01-07T08:11:14;93181.66;;;9.89;100.00
16451;BME280;12243;42.708;23.310;2024-01-07T08:13:41;93186.53;;;9.92;100.00
16451;BME280;12243;42.708;23.310;2024-01-07T08:16:08;93187.34;;;9.93;100.00
16451;BME280;12243;42.708;23.310;2024-01-07T08:18:36;93181.84;;;9.88;100.00
16451;BME280;12243;42.708;23.310;2024-01-07T08:21:03;93181.38;;;9.84;100.00
16451;BME280;12243;42.708;23.310;2024-01-07T08:23:29;93189.78;;;9.86;100.00
16451;BME280;12243;42.708;23.310;2024-01-07T08:25:58;93183.88;;;10.00;100.00
16451;BME280;12243;42.708;23.310;2024-01-07T08:28:24;93178.91;;;10.22;100.00
16451;BME280;12243;42.708;23.310;2024-01-07T08:30:51;93183.47;;;10.20;100.00
16451;BME280;12243;42.708;23.310;2024-01-07T08:33:19;93178.25;;;10.20;100.00
16451;BME280;12243;42.708;23.310;2024-01-07T08:35:46;93174.34;;;10.24;100.00
16451;BME280;12243;42.708;23.310;2024-01-07T08:38:12;93177.34;;;10.13;100.00
16451;BME280;12243;42.708;23.310;2024-01-07T08:40:39;93179.41;;;10.17;100.00
16451;BME280;12243;42.708;23.310;2024-01-07T08:43:08;93172.88;;;10.21;100.00
16451;BME280;12243;42.708;23.310;2024-01-07T08:45:35;93182.72;;;10.11;100.00
16451;BME280;12243;42.708;23.310;2024-01-07T08:48:01;93188.03;;;10.26;100.00
16451;BME280;12243;42.708;23.310;2024-01-07T08:50:28;93191.50;;;10.41;100.00
16451;BME280;12243;42.708;23.310;2024-01-07T08:52:56;93186.88;;;10.52;100.00
16451;BME280;12243;42.708;23.310;2024-01-07T08:55:22;93185.50;;;10.64;100.00
16451;BME280;12243;42.708;23.310;2024-01-07T08:57:51;93177.91;;;10.77;100.00
16451;BME280;12243;42.708;23.310;2024-01-07T09:00:19;93169.72;;;10.88;100.00
16451;BME280;12243;42.708;23.310;2024-01-07T09:02:51;93165.78;;;11.07;100.00
16451;BME280;12243;42.708;23.310;2024-01-07T09:05:18;93167.78;;;11.20;100.00
16451;BME280;12243;42.708;23.310;2024-01-07T09:07:45;93174.69;;;11.13;100.00
16451;BME280;12243;42.708;23.310;2024-01-07T09:10:12;93170.16;;;11.30;100.00
16451;BME280;12243;42.708;23.310;2024-01-07T09:12:39;93172.56;;;11.31;100.00
16451;BME280;12243;42.708;23.310;2024-01-07T09:15:06;93176.97;;;11.45;98.68
16451;BME280;12243;42.708;23.310;2024-01-07T09:17:36;93178.03;;;11.36;99.39
16451;BME280;12243;42.708;23.310;2024-01-07T09:20:04;93177.44;;;11.34;99.50
16451;BME280;12243;42.708;23.310;2024-01-07T09:22:33;93182.19;;;11.45;99.78
16451;BME280;12243;42.708;23.310;2024-01-07T09:25:01;93187.34;;;11.68;99.03
16451;BME280;12243;42.708;23.310;2024-01-07T09:27:27;93183.75;;;11.84;98.20
16451;BME280;12243;42.708;23.310;2024-01-07T09:29:54;93177.81;;;11.90;96.94
16451;BME280;12243;42.708;23.310;2024-01-07T09:32:21;93172.50;;;11.99;97.40
16451;BME280;12243;42.708;23.310;2024-01-07T09:34:50;93177.75;;;12.20;97.15
16451;BME280;12243;42.708;23.310;2024-01-07T09:37:17;93170.34;;;12.38;94.73
16451;BME280;12243;42.708;23.310;2024-01-07T09:39:44;93170.94;;;12.55;93.72
16451;BME280;12243;42.708;23.310;2024-01-07T09:42:13;93163.84;;;12.71;92.64
16451;BME280;12243;42.708;23.310;2024-01-07T09:44:41;93173.22;;;12.86;91.36
16451;BME280;12243;42.708;23.310;2024-01-07T09:47:10;93166.38;;;12.85;92.84
16451;BME280;12243;42.708;23.310;2024-01-07T09:49:39;93169.19;;;13.05;91.78
16451;BME280;12243;42.708;23.310;2024-01-07T09:52:08;93166.47;;;13.20;90.94
16451;BME280;12243;42.708;23.310;2024-01-07T09:54:36;93167.84;;;13.38;90.08
16451;BME280;12243;42.708;23.310;2024-01-07T09:57:05;93164.69;;;13.49;88.31
16451;BME280;12243;42.708;23.310;2024-01-07T09:59:33;93165.78;;;13.61;86.24
16451;BME280;12243;42.708;23.310;2024-01-07T10:02:00;93153.34;;;13.70;85.53
16451;BME280;12243;42.708;23.310;2024-01-07T10:04:27;93161.22;;;13.76;86.70
16451;BME280;12243;42.708;23.310;2024-01-07T10:06:54;93159.13;;;14.00;85.36
16451;BME280;12243;42.708;23.310;2024-01-07T10:09:24;93159.66;;;14.23;86.09
16451;BME280;12243;42.708;23.310;2024-01-07T10:11:51;93150.25;;;14.49;82.12
16451;BME280;12243;42.708;23.310;2024-01-07T10:14:18;93134.91;;;14.46;80.93
16451;BME280;12243;42.708;23.310;2024-01-07T10:16:48;93135.19;;;14.51;80.43
16451;BME280;12243;42.708;23.310;2024-01-07T10:19:19;93130.69;;;14.45;79.58
16451;BME280;12243;42.708;23.310;2024-01-07T10:21:58;93118.22;;;14.53;79.48
16451;BME280;12243;42.708;23.310;2024-01-07T10:24:26;93119.06;;;14.54;80.38
16451;BME280;12243;42.708;23.310;2024-01-07T10:26:57;93109.81;;;14.71;78.93
16451;BME280;12243;42.708;23.310;2024-01-07T10:29:24;93111.63;;;14.77;78.48
16451;BME280;12243;42.708;23.310;2024-01-07T10:31:55;93109.63;;;14.80;78.56
16451;BME280;12243;42.708;23.310;2024-01-07T10:34:23;93105.38;;;14.65;78.47
16451;BME280;12243;42.708;23.310;2024-01-07T10:36:51;93098.91;;;14.55;79.36
16451;BME280;12243;42.708;23.310;2024-01-07T10:39:21;93094.91;;;14.65;78.28
16451;BME280;12243;42.708;23.310;2024-01-07T10:41:50;93085.22;;;14.66;79.26
16451;BME280;12243;42.708;23.310;2024-01-07T10:44:22;93075.09;;;14.49;79.23
16451;BME280;12243;42.708;23.310;2024-01-07T10:46:49;93072.69;;;14.48;79.44
16451;BME280;12243;42.708;23.310;2024-01-07T10:49:19;93076.28;;;14.34;79.62
16451;BME280;12243;42.708;23.310;2024-01-07T10:51:54;93081.47;;;14.14;80.18
16451;BME280;12243;42.708;23.310;2024-01-07T10:54:23;93080.22;;;14.03;80.76
16451;BME280;12243;42.708;23.310;2024-01-07T10:56:58;93082.63;;;13.98;81.04
16451;BME280;12243;42.708;23.310;2024-01-07T10:59:26;93085.84;;;14.00;81.84
16451;BME280;12243;42.708;23.310;2024-01-07T11:01:53;93081.03;;;14.03;80.62
16451;BME280;12243;42.708;23.310;2024-01-07T11:04:23;93082.06;;;14.09;80.53
16451;BME280;12243;42.708;23.310;2024-01-07T11:06:59;93078.91;;;14.34;79.62
16451;BME280;12243;42.708;23.310;2024-01-07T11:09:32;93076.31;;;14.53;80.03
16451;BME280;12243;42.708;23.310;2024-01-07T11:12:01;93078.97;;;14.80;78.49
16451;BME280;12243;42.708;23.310;2024-01-07T11:14:40;93077.97;;;14.88;78.02
16451;BME280;12243;42.708;23.310;2024-01-07T11:17:10;93091.69;;;14.90;77.90
16451;BME280;12243;42.708;23.310;2024-01-07T11:19:49;93088.03;;;15.04;75.94
16451;BME280;12243;42.708;23.310;2024-01-07T11:22:24;93091.28;;;14.80;76.23
16451;BME280;12243;42.708;23.310;2024-01-07T11:24:53;93092.47;;;14.84;76.29
16451;BME280;12243;42.708;23.310;2024-01-07T11:27:23;93083.59;;;14.85;74.60
16451;BME280;12243;42.708;23.310;2024-01-07T11:29:54;93084.22;;;14.80;74.03
16451;BME280;12243;42.708;23.310;2024-01-07T11:32:22;93089.66;;;14.65;74.68
16451;BME280;12243;42.708;23.310;2024-01-07T11:34:51;93084.41;;;14.72;75.22
16451;BME280;12243;42.708;23.310;2024-01-07T11:37:19;93077.94;;;14.68;74.98
16451;BME280;12243;42.708;23.310;2024-01-07T11:39:48;93083.63;;;14.71;75.33
16451;BME280;12243;42.708;23.310;2024-01-07T11:42:15;93088.03;;;14.77;74.92
16451;BME280;12243;42.708;23.310;2024-01-07T11:44:52;93083.00;;;14.83;74.52
16451;BME280;12243;42.708;23.310;2024-01-07T11:47:20;93094.47;;;14.82;73.40
16451;BME280;12243;42.708;23.310;2024-01-07T11:49:47;93091.66;;;14.76;73.01
16451;BME280;12243;42.708;23.310;2024-01-07T11:52:15;93093.66;;;14.74;72.87
16451;BME280;12243;42.708;23.310;2024-01-07T11:54:42;93094.09;;;14.65;73.96
16451;BME280;12243;42.708;23.310;2024-01-07T11:57:10;93101.75;;;14.73;73.09
16451;BME280;12243;42.708;23.310;2024-01-07T11:59:37;93089.66;;;14.92;72.58
16451;BME280;12243;42.708;23.310;2024-01-07T12:02:06;93084.81;;;15.02;71.09
16451;BME280;12243;42.708;23.310;2024-01-07T12:04:33;93088.84;;;14.98;71.92
16451;BME280;12243;42.708;23.310;2024-01-07T12:07:01;93085.63;;;14.76;72.95
16451;BME280;12243;42.708;23.310;2024-01-07T12:09:29;93081.38;;;14.82;73.75
16451;BME280;12243;42.708;23.310;2024-01-07T12:11:56;93085.63;;;14.83;73.41
16451;BME280;12243;42.708;23.310;2024-01-07T12:14:23;93086.84;;;14.93;73.27
16451;BME280;12243;42.708;23.310;2024-01-07T12:16:50;93083.59;;;15.05;72.15
16451;BME280;12243;42.708;23.310;2024-01-07T12:19:18;93083.19;;;15.01;71.17
16451;BME280;12243;42.708;23.310;2024-01-07T12:21:45;93097.09;;;14.95;71.99
16451;BME280;12243;42.708;23.310;2024-01-07T12:24:13;93098.91;;;14.81;74.00
16451;BME280;12243;42.708;23.310;2024-01-07T12:26:40;93097.09;;;14.82;73.99
16451;BME280;12243;42.708;23.310;2024-01-07T12:29:06;93102.34;;;14.82;74.11
16451;BME280;12243;42.708;23.310;2024-01-07T12:31:36;93091.84;;;14.82;74.33
16451;BME280;12243;42.708;23.310;2024-01-07T12:34:04;93093.09;;;14.86;73.82
16451;BME280;12243;42.708;23.310;2024-01-07T12:36:33;93093.28;;;14.77;74.84
16451;BME280;12243;42.708;23.310;2024-01-07T12:38:59;93094.91;;;14.65;74.95
16451;BME280;12243;42.708;23.310;2024-01-07T12:41:26;93093.41;;;14.49;75.45
16451;BME280;12243;42.708;23.310;2024-01-07T12:43:54;93098.84;;;14.41;76.48
16451;BME280;12243;42.708;23.310;2024-01-07T12:46:21;93096.81;;;14.30;77.15
16451;BME280;12243;42.708;23.310;2024-01-07T12:48:48;93091.34;;;14.18;78.20
16451;BME280;12243;42.708;23.310;2024-01-07T12:51:15;93094.34;;;14.15;78.36
16451;BME280;12243;42.708;23.310;2024-01-07T12:53:43;93095.53;;;14.06;78.84